sensor_id;sensor_type;location;lat;lon;timestamp;temperature;humidity
2012;DHT22;1009;51.436;6.972;2023-05-16T00:02:10;11.00;99.90
2012;DHT22;1009;51.436;6.972;2023-05-16T00:04:37;10.90;99.90
2012;DHT22;1009;51.436;6.972;2023-05-16T00:07:05;10.80;99.90
2012;DHT22;1009;51.436;6.972;2023-05-16T00:09:32;10.80;99.90
2012;DHT22;1009;51.436;6.972;2023-05-16T00:12:02;10.80;99.90
2012;DHT22;1009;51.436;6.972;2023-05-16T00:14:29;10.80;99.90
2012;DHT22;1009;51.436;6.972;2023-05-16T00:16:56;10.70;99.90
2012;DHT22;1009;51.436;6.972;2023-05-16T00:19:23;10.60;99.90
2012;DHT22;1009;51.436;6.972;2023-05-16T00:21:51;10.70;99.90
2012;DHT22;1009;51.436;6.972;2023-05-16T00:24:19;10.60;99.90
2012;DHT22;1009;51.436;6.972;2023-05-16T00:26:46;10.60;99.90
2012;DHT22;1009;51.436;6.972;2023-05-16T00:29:12;10.60;99.90
2012;DHT22;1009;51.436;6.972;2023-05-16T00:31:39;10.50;99.90
2012;DHT22;1009;51.436;6.972;2023-05-16T00:34:07;10.50;99.90
2012;DHT22;1009;51.436;6.972;2023-05-16T00:36:33;10.40;99.90
2012;DHT22;1009;51.436;6.972;2023-05-16T00:39:00;10.40;99.90
2012;DHT22;1009;51.436;6.972;2023-05-16T00:41:29;10.40;99.90
2012;DHT22;1009;51.436;6.972;2023-05-16T00:43:56;10.30;99.90
2012;DHT22;1009;51.436;6.972;2023-05-16T00:46:25;10.20;99.90
2012;DHT22;1009;51.436;6.972;2023-05-16T00:48:52;10.20;99.90
2012;DHT22;1009;51.436;6.972;2023-05-16T00:51:19;10.20;99.90
2012;DHT22;1009;51.436;6.972;2023-05-16T00:53:46;10.20;99.90
2012;DHT22;1009;51.436;6.972;2023-05-16T00:56:13;10.10;99.90
2012;DHT22;1009;51.436;6.972;2023-05-16T00:58:41;10.10;99.90
2012;DHT22;1009;51.436;6.972;2023-05-16T01:01:08;10.00;99.90
2012;DHT22;1009;51.436;6.972;2023-05-16T01:03:34;10.00;99.90
2012;DHT22;1009;51.436;6.972;2023-05-16T01:06:02;10.00;99.90
2012;DHT22;1009;51.436;6.972;2023-05-16T01:08:28;10.00;99.90
2012;DHT22;1009;51.436;6.972;2023-05-16T01:11:01;10.00;99.90
2012;DHT22;1009;51.436;6.972;2023-05-16T01:13:34;10.00;99.90
2012;DHT22;1009;51.436;6.972;2023-05-16T01:16:15;9.90;99.90
2012;DHT22;1009;51.436;6.972;2023-05-16T01:18:51;9.90;99.90
2012;DHT22;1009;51.436;6.972;2023-05-16T01:21:36;9.90;99.90
2012;DHT22;1009;51.436;6.972;2023-05-16T01:24:12;9.80;99.90
2012;DHT22;1009;51.436;6.972;2023-05-16T01:26:41;9.70;99.90
2012;DHT22;1009;51.436;6.972;2023-05-16T01:29:08;9.70;99.90
2012;DHT22;1009;51.436;6.972;2023-05-16T01:31:38;9.60;99.90
2012;DHT22;1009;51.436;6.972;2023-05-16T01:34:04;9.50;99.90
2012;DHT22;1009;51.436;6.972;2023-05-16T01:36:37;9.60;99.90
2012;DHT22;1009;51.436;6.972;2023-05-16T01:39:08;9.50;99.90
2012;DHT22;1009;51.436;6.972;2023-05-16T01:41:48;9.60;99.90
2012;DHT22;1009;51.436;6.972;2023-05-16T01:44:21;9.60;99.90
2012;DHT22;1009;51.436;6.972;2023-05-16T01:46:54;9.50;99.90
2012;DHT22;1009;51.436;6.972;2023-05-16T01:49:25;9.40;99.90
2012;DHT22;1009;51.436;6.972;2023-05-16T01:52:00;9.50;99.90
2012;DHT22;1009;51.436;6.972;2023-05-16T01:54:30;9.50;99.90
2012;DHT22;1009;51.436;6.972;2023-05-16T01:57:03;9.50;99.90
2012;DHT22;1009;51.436;6.972;2023-05-16T01:59:39;9.40;99.90
2012;DHT22;1009;51.436;6.972;2023-05-16T02:02:07;9.40;99.90
2012;DHT22;1009;51.436;6.972;2023-05-16T02:04:34;9.30;99.90
2012;DHT22;1009;51.436;6.972;2023-05-16T02:07:00;9.30;99.90
2012;DHT22;1009;51.436;6.972;2023-05-16T02:09:27;9.30;99.90
2012;DHT22;1009;51.436;6.972;2023-05-16T02:11:54;9.30;99.90
2012;DHT22;1009;51.436;6.972;2023-05-16T02:14:22;9.30;99.90
2012;DHT22;1009;51.436;6.972;2023-05-16T02:16:50;9.30;99.90
2012;DHT22;1009;51.436;6.972;2023-05-16T02:19:17;9.40;99.90
2012;DHT22;1009;51.436;6.972;2023-05-16T02:21:43;9.30;99.90
2012;DHT22;1009;51.436;6.972;2023-05-16T02:24:13;9.30;99.90
2012;DHT22;1009;51.436;6.972;2023-05-16T02:26:43;9.30;99.90
2012;DHT22;1009;51.436;6.972;2023-05-16T02:29:10;9.30;99.90
2012;DHT22;1009;51.436;6.972;2023-05-16T02:31:38;9.30;99.90
2012;DHT22;1009;51.436;6.972;2023-05-16T02:34:07;9.20;99.90
2012;DHT22;1009;51.436;6.972;2023-05-16T02:36:33;9.30;99.90
2012;DHT22;1009;51.436;6.972;2023-05-16T02:39:03;9.20;99.90
2012;DHT22;1009;51.436;6.972;2023-05-16T02:41:33;9.20;99.90
2012;DHT22;1009;51.436;6.972;2023-05-16T02:43:59;9.10;99.90
2012;DHT22;1009;51.436;6.972;2023-05-16T02:46:27;9.00;99.90
2012;DHT22;1009;51.436;6.972;2023-05-16T02:48:56;9.10;99.90
2012;DHT22;1009;51.436;6.972;2023-05-16T02:51:25;9.00;99.90
2012;DHT22;1009;51.436;6.972;2023-05-16T02:53:54;9.00;99.90
2012;DHT22;1009;51.436;6.972;2023-05-16T02:56:24;9.00;99.90
2012;DHT22;1009;51.436;6.972;2023-05-16T02:58:52;8.90;99.90
2012;DHT22;1009;51.436;6.972;2023-05-16T03:01:19;8.90;99.90
2012;DHT22;1009;51.436;6.972;2023-05-16T03:03:46;8.90;99.90
2012;DHT22;1009;51.436;6.972;2023-05-16T03:06:14;8.90;99.90
2012;DHT22;1009;51.436;6.972;2023-05-16T03:08:40;8.90;99.90
2012;DHT22;1009;51.436;6.972;2023-05-16T03:11:07;8.90;99.90
2012;DHT22;1009;51.436;6.972;2023-05-16T03:13:34;8.80;99.90
2012;DHT22;1009;51.436;6.972;2023-05-16T03:16:01;8.70;99.90
2012;DHT22;1009;51.436;6.972;2023-05-16T03:18:27;8.80;99.90
2012;DHT22;1009;51.436;6.972;2023-05-16T03:20:54;8.90;99.90
2012;DHT22;1009;51.436;6.972;2023-05-16T03:23:23;8.80;99.90
2012;DHT22;1009;51.436;6.972;2023-05-16T03:25:50;8.80;99.90
2012;DHT22;1009;51.436;6.972;2023-05-16T03:28:16;8.80;99.90
2012;DHT22;1009;51.436;6.972;2023-05-16T03:30:43;8.90;99.90
2012;DHT22;1009;51.436;6.972;2023-05-16T03:33:10;8.90;99.90
2012;DHT22;1009;51.436;6.972;2023-05-16T03:35:37;8.90;99.90
2012;DHT22;1009;51.436;6.972;2023-05-16T03:38:04;8.80;99.90
2012;DHT22;1009;51.436;6.972;2023-05-16T03:40:33;8.80;99.90
2012;DHT22;1009;51.436;6.972;2023-05-16T03:43:00;8.80;99.90
2012;DHT22;1009;51.436;6.972;2023-05-16T03:45:27;8.70;99.90
2012;DHT22;1009;51.436;6.972;2023-05-16T03:47:54;8.60;99.90
2012;DHT22;1009;51.436;6.972;2023-05-16T03:50:21;8.60;99.90
2012;DHT22;1009;51.436;6.972;2023-05-16T03:52:48;8.60;99.90
2012;DHT22;1009;51.436;6.972;2023-05-16T03:55:18;8.60;99.90
2012;DHT22;1009;51.436;6.972;2023-05-16T03:57:46;8.60;99.90
2012;DHT22;1009;51.436;6.972;2023-05-16T04:00:15;8.50;99.90
2012;DHT22;1009;51.436;6.972;2023-05-16T04:02:42;8.50;99.90
2012;DHT22;1009;51.436;6.972;2023-05-16T04:05:10;8.40;99.90
2012;DHT22;1009;51.436;6.972;2023-05-16T04:07:37;8.30;99.90
2012;DHT22;1009;51.436;6.972;2023-05-16T04:10:04;8.30;99.90
2012;DHT22;1009;51.436;6.972;2023-05-16T04:12:31;8.30;99.90
2012;DHT22;1009;51.436;6.972;2023-05-16T04:14:59;8.30;99.90
2012;DHT22;1009;51.436;6.972;2023-05-16T04:17:26;8.40;99.90
2012;DHT22;1009;51.436;6.972;2023-05-16T04:19:56;8.40;99.90
2012;DHT22;1009;51.436;6.972;2023-05-16T04:22:22;8.30;99.90
2012;DHT22;1009;51.436;6.972;2023-05-16T04:24:49;8.40;99.90
2012;DHT22;1009;51.436;6.972;2023-05-16T04:27:16;8.40;99.90
2012;DHT22;1009;51.436;6.972;2023-05-16T04:29:43;8.40;99.90
2012;DHT22;1009;51.436;6.972;2023-05-16T04:32:11;8.30;99.90
2012;DHT22;1009;51.436;6.972;2023-05-16T04:34:38;8.30;99.90
2012;DHT22;1009;51.436;6.972;2023-05-16T04:37:07;8.30;99.90
2012;DHT22;1009;51.436;6.972;2023-05-16T04:39:34;8.40;99.90
2012;DHT22;1009;51.436;6.972;2023-05-16T04:42:01;8.50;99.90
2012;DHT22;1009;51.436;6.972;2023-05-16T04:44:28;8.50;99.90
2012;DHT22;1009;51.436;6.972;2023-05-16T04:46:55;8.50;99.90
2012;DHT22;1009;51.436;6.972;2023-05-16T04:49:23;8.50;99.90
2012;DHT22;1009;51.436;6.972;2023-05-16T04:51:50;8.50;99.90
2012;DHT22;1009;51.436;6.972;2023-05-16T04:54:17;8.40;99.90
2012;DHT22;1009;51.436;6.972;2023-05-16T04:56:44;8.40;99.90
2012;DHT22;1009;51.436;6.972;2023-05-16T04:59:10;8.40;99.90
2012;DHT22;1009;51.436;6.972;2023-05-16T05:01:37;8.40;99.90
2012;DHT22;1009;51.436;6.972;2023-05-16T05:04:04;8.40;99.90
2012;DHT22;1009;51.436;6.972;2023-05-16T05:06:32;8.30;99.90
2012;DHT22;1009;51.436;6.972;2023-05-16T05:08:59;8.30;99.90
2012;DHT22;1009;51.436;6.972;2023-05-16T05:11:25;8.40;99.90
2012;DHT22;1009;51.436;6.972;2023-05-16T05:13:52;8.30;99.90
2012;DHT22;1009;51.436;6.972;2023-05-16T05:16:19;8.40;99.90
2012;DHT22;1009;51.436;6.972;2023-05-16T05:18:49;8.40;99.90
2012;DHT22;1009;51.436;6.972;2023-05-16T05:21:15;8.50;99.90
2012;DHT22;1009;51.436;6.972;2023-05-16T05:23:44;8.50;99.90
2012;DHT22;1009;51.436;6.972;2023-05-16T05:26:11;8.50;99.90
2012;DHT22;1009;51.436;6.972;2023-05-16T05:28:38;8.60;99.90
2012;DHT22;1009;51.436;6.972;2023-05-16T05:31:04;8.60;99.90
2012;DHT22;1009;51.436;6.972;2023-05-16T05:33:32;8.70;99.90
2012;DHT22;1009;51.436;6.972;2023-05-16T05:35:59;8.60;99.90
2012;DHT22;1009;51.436;6.972;2023-05-16T05:38:29;8.60;99.90
2012;DHT22;1009;51.436;6.972;2023-05-16T05:40:57;8.70;99.90
2012;DHT22;1009;51.436;6.972;2023-05-16T05:43:24;8.80;99.90
2012;DHT22;1009;51.436;6.972;2023-05-16T05:46:06;8.70;99.90
2012;DHT22;1009;51.436;6.972;2023-05-16T05:48:32;8.80;99.90
2012;DHT22;1009;51.436;6.972;2023-05-16T05:50:59;8.80;99.90
2012;DHT22;1009;51.436;6.972;2023-05-16T05:53:29;8.90;99.90
2012;DHT22;1009;51.436;6.972;2023-05-16T05:55:57;9.00;99.90
2012;DHT22;1009;51.436;6.972;2023-05-16T05:58:24;9.10;99.90
2012;DHT22;1009;51.436;6.972;2023-05-16T06:00:51;9.20;99.90
2012;DHT22;1009;51.436;6.972;2023-05-16T06:03:17;9.30;99.90
2012;DHT22;1009;51.436;6.972;2023-05-16T06:05:45;9.20;99.90
2012;DHT22;1009;51.436;6.972;2023-05-16T06:08:12;9.20;99.90
2012;DHT22;1009;51.436;6.972;2023-05-16T06:10:39;9.20;99.90
2012;DHT22;1009;51.436;6.972;2023-05-16T06:13:07;9.20;99.90
2012;DHT22;1009;51.436;6.972;2023-05-16T06:15:33;9.30;99.90
2012;DHT22;1009;51.436;6.972;2023-05-16T06:18:00;9.20;99.90
2012;DHT22;1009;51.436;6.972;2023-05-16T06:20:27;9.30;99.90
2012;DHT22;1009;51.436;6.972;2023-05-16T06:22:54;9.40;99.90
2012;DHT22;1009;51.436;6.972;2023-05-16T06:25:20;9.60;99.90
2012;DHT22;1009;51.436;6.972;2023-05-16T06:27:47;9.60;99.90
2012;DHT22;1009;51.436;6.972;2023-05-16T06:30:15;9.70;99.90
2012;DHT22;1009;51.436;6.972;2023-05-16T06:32:42;9.80;99.90
2012;DHT22;1009;51.436;6.972;2023-05-16T06:35:09;10.00;99.90
2012;DHT22;1009;51.436;6.972;2023-05-16T06:37:35;10.10;99.90
2012;DHT22;1009;51.436;6.972;2023-05-16T06:40:02;9.80;99.90
2012;DHT22;1009;51.436;6.972;2023-05-16T06:42:30;9.90;99.90
2012;DHT22;1009;51.436;6.972;2023-05-16T06:44:56;10.00;99.90
2012;DHT22;1009;51.436;6.972;2023-05-16T06:47:24;10.00;99.90
2012;DHT22;1009;51.436;6.972;2023-05-16T06:49:51;9.90;99.90
2012;DHT22;1009;51.436;6.972;2023-05-16T06:52:18;9.70;99.90
2012;DHT22;1009;51.436;6.972;2023-05-16T06:54:45;9.60;99.90
2012;DHT22;1009;51.436;6.972;2023-05-16T06:57:11;9.40;99.90
2012;DHT22;1009;51.436;6.972;2023-05-16T06:59:38;9.30;99.90
2012;DHT22;1009;51.436;6.972;2023-05-16T07:02:06;9.30;99.90
2012;DHT22;1009;51.436;6.972;2023-05-16T07:04:34;9.30;99.90
2012;DHT22;1009;51.436;6.972;2023-05-16T07:07:02;9.30;99.90
2012;DHT22;1009;51.436;6.972;2023-05-16T07:09:29;9.40;99.90
2012;DHT22;1009;51.436;6.972;2023-05-16T07:11:56;9.60;99.90
2012;DHT22;1009;51.436;6.972;2023-05-16T07:14:23;9.50;99.90
2012;DHT22;1009;51.436;6.972;2023-05-16T07:16:49;9.70;99.90
2012;DHT22;1009;51.436;6.972;2023-05-16T07:19:16;10.10;99.90
2012;DHT22;1009;51.436;6.972;2023-05-16T07:21:44;10.30;99.90
2012;DHT22;1009;51.436;6.972;2023-05-16T07:24:11;10.50;99.90
2012;DHT22;1009;51.436;6.972;2023-05-16T07:26:37;10.70;99.90
2012;DHT22;1009;51.436;6.972;2023-05-16T07:29:04;10.80;99.90
2012;DHT22;1009;51.436;6.972;2023-05-16T07:31:31;11.00;99.90
2012;DHT22;1009;51.436;6.972;2023-05-16T07:33:57;11.00;99.90
2012;DHT22;1009;51.436;6.972;2023-05-16T07:36:24;10.90;99.90
2012;DHT22;1009;51.436;6.972;2023-05-16T07:38:52;10.90;99.90
2012;DHT22;1009;51.436;6.972;2023-05-16T07:41:19;11.00;99.90
2012;DHT22;1009;51.436;6.972;2023-05-16T07:43:46;11.00;99.90
2012;DHT22;1009;51.436;6.972;2023-05-16T07:46:12;10.70;99.90
2012;DHT22;1009;51.436;6.972;2023-05-16T07:48:39;10.70;99.90
2012;DHT22;1009;51.436;6.972;2023-05-16T07:51:06;10.80;99.90
2012;DHT22;1009;51.436;6.972;2023-05-16T07:53:33;11.00;99.90
2012;DHT22;1009;51.436;6.972;2023-05-16T07:56:01;11.10;99.90
2012;DHT22;1009;51.436;6.972;2023-05-16T07:58:28;11.10;99.90
2012;DHT22;1009;51.436;6.972;2023-05-16T08:00:55;11.10;99.90
2012;DHT22;1009;51.436;6.972;2023-05-16T08:03:22;11.10;99.90
2012;DHT22;1009;51.436;6.972;2023-05-16T08:05:48;11.20;99.90
2012;DHT22;1009;51.436;6.972;2023-05-16T08:08:16;11.40;99.90
2012;DHT22;1009;51.436;6.972;2023-05-16T08:10:43;11.60;99.90
2012;DHT22;1009;51.436;6.972;2023-05-16T08:13:11;11.90;99.90
2012;DHT22;1009;51.436;6.972;2023-05-16T08:15:44;12.10;99.90
2012;DHT22;1009;51.436;6.972;2023-05-16T08:18:12;12.00;99.90
2012;DHT22;1009;51.436;6.972;2023-05-16T08:20:39;12.00;99.90
2012;DHT22;1009;51.436;6.972;2023-05-16T08:23:06;12.30;99.90
2012;DHT22;1009;51.436;6.972;2023-05-16T08:25:33;12.60;99.90
2012;DHT22;1009;51.436;6.972;2023-05-16T08:28:00;12.80;99.90
2012;DHT22;1009;51.436;6.972;2023-05-16T08:30:28;12.70;99.90
2012;DHT22;1009;51.436;6.972;2023-05-16T08:32:55;12.90;99.90
2012;DHT22;1009;51.436;6.972;2023-05-16T08:35:22;12.70;99.90
2012;DHT22;1009;51.436;6.972;2023-05-16T08:37:51;12.70;99.90
2012;DHT22;1009;51.436;6.972;2023-05-16T08:40:18;12.50;99.90
2012;DHT22;1009;51.436;6.972;2023-05-16T08:42:45;12.70;99.90
2012;DHT22;1009;51.436;6.972;2023-05-16T08:45:12;12.60;99.90
2012;DHT22;1009;51.436;6.972;2023-05-16T08:47:41;12.30;99.90
2012;DHT22;1009;51.436;6.972;2023-05-16T08:50:15;12.50;99.90
2012;DHT22;1009;51.436;6.972;2023-05-16T08:52:43;12.70;99.90
2012;DHT22;1009;51.436;6.972;2023-05-16T08:55:10;13.00;99.90
2012;DHT22;1009;51.436;6.972;2023-05-16T08:57:37;12.80;99.90
2012;DHT22;1009;51.436;6.972;2023-05-16T09:00:06;12.30;99.90
2012;DHT22;1009;51.436;6.972;2023-05-16T09:02:36;11.90;99.90
2012;DHT22;1009;51.436;6.972;2023-05-16T09:05:08;11.70;99.90
2012;DHT22;1009;51.436;6.972;2023-05-16T09:07:36;11.60;99.90
2012;DHT22;1009;51.436;6.972;2023-05-16T09:10:03;11.50;99.90
2012;DHT22;1009;51.436;6.972;2023-05-16T09:12:31;11.40;99.90
2012;DHT22;1009;51.436;6.972;2023-05-16T09:14:58;11.30;99.90
2012;DHT22;1009;51.436;6.972;2023-05-16T09:17:25;11.40;99.90
2012;DHT22;1009;51.436;6.972;2023-05-16T09:19:52;11.80;99.90
2012;DHT22;1009;51.436;6.972;2023-05-16T09:22:28;12.40;99.90
2012;DHT22;1009;51.436;6.972;2023-05-16T09:24:54;12.60;99.90
2012;DHT22;1009;51.436;6.972;2023-05-16T09:27:25;12.90;99.90
2012;DHT22;1009;51.436;6.972;2023-05-16T09:29:52;13.10;99.90
2012;DHT22;1009;51.436;6.972;2023-05-16T09:32:18;13.20;99.90
2012;DHT22;1009;51.436;6.972;2023-05-16T09:34:46;13.10;99.90
2012;DHT22;1009;51.436;6.972;2023-05-16T09:37:14;13.10;99.90
2012;DHT22;1009;51.436;6.972;2023-05-16T09:39:48;13.40;99.90
2012;DHT22;1009;51.436;6.972;2023-05-16T09:42:15;13.80;99.90
2012;DHT22;1009;51.436;6.972;2023-05-16T09:44:45;13.80;99.90
2012;DHT22;1009;51.436;6.972;2023-05-16T09:47:13;13.90;99.90
2012;DHT22;1009;51.436;6.972;2023-05-16T09:49:40;14.00;99.90
2012;DHT22;1009;51.436;6.972;2023-05-16T09:52:08;13.60;99.90
2012;DHT22;1009;51.436;6.972;2023-05-16T09:54:35;13.40;99.90
2012;DHT22;1009;51.436;6.972;2023-05-16T09:57:03;13.40;99.90
2012;DHT22;1009;51.436;6.972;2023-05-16T09:59:30;13.10;99.90
2012;DHT22;1009;51.436;6.972;2023-05-16T10:02:01;12.80;99.90
2012;DHT22;1009;51.436;6.972;2023-05-16T10:04:28;12.60;99.90
2012;DHT22;1009;51.436;6.972;2023-05-16T10:06:55;12.20;99.90
2012;DHT22;1009;51.436;6.972;2023-05-16T10:09:22;12.10;99.90
2012;DHT22;1009;51.436;6.972;2023-05-16T10:11:51;12.10;99.90
2012;DHT22;1009;51.436;6.972;2023-05-16T10:14:19;12.20;99.90
2012;DHT22;1009;51.436;6.972;2023-05-16T10:16:47;12.30;99.90
2012;DHT22;1009;51.436;6.972;2023-05-16T10:19:15;12.40;99.90
2012;DHT22;1009;51.436;6.972;2023-05-16T10:21:45;12.40;99.90
2012;DHT22;1009;51.436;6.972;2023-05-16T10:24:18;12.50;99.90
2012;DHT22;1009;51.436;6.972;2023-05-16T10:26:48;12.50;99.90
2012;DHT22;1009;51.436;6.972;2023-05-16T10:29:16;12.50;99.90
2012;DHT22;1009;51.436;6.972;2023-05-16T10:31:45;12.50;99.90
2012;DHT22;1009;51.436;6.972;2023-05-16T10:34:12;12.50;99.90
2012;DHT22;1009;51.436;6.972;2023-05-16T10:36:39;12.50;99.90
2012;DHT22;1009;51.436;6.972;2023-05-16T10:39:06;12.50;99.90
2012;DHT22;1009;51.436;6.972;2023-05-16T10:41:34;12.60;99.90
2012;DHT22;1009;51.436;6.972;2023-05-16T10:44:01;12.60;99.90
2012;DHT22;1009;51.436;6.972;2023-05-16T10:46:30;12.70;99.90
2012;DHT22;1009;51.436;6.972;2023-05-16T10:48:58;12.80;99.90
2012;DHT22;1009;51.436;6.972;2023-05-16T10:51:36;12.90;99.90
2012;DHT22;1009;51.436;6.972;2023-05-16T10:54:08;12.80;99.90
2012;DHT22;1009;51.436;6.972;2023-05-16T10:56:37;12.70;99.90
2012;DHT22;1009;51.436;6.972;2023-05-16T10:59:04;12.50;99.90
2012;DHT22;1009;51.436;6.972;2023-05-16T11:01:51;12.50;99.90
2012;DHT22;1009;51.436;6.972;2023-05-16T11:04:19;12.50;99.90
2012;DHT22;1009;51.436;6.972;2023-05-16T11:06:50;12.60;99.90
2012;DHT22;1009;51.436;6.972;2023-05-16T11:09:20;12.80;99.90
2012;DHT22;1009;51.436;6.972;2023-05-16T11:11:54;13.40;99.90
2012;DHT22;1009;51.436;6.972;2023-05-16T11:14:22;13.80;99.90
2012;DHT22;1009;51.436;6.972;2023-05-16T11:16:50;14.30;99.90
2012;DHT22;1009;51.436;6.972;2023-05-16T11:19:32;14.80;99.90
2012;DHT22;1009;51.436;6.972;2023-05-16T11:22:10;15.00;99.90
2012;DHT22;1009;51.436;6.972;2023-05-16T11:24:49;15.20;99.90
2012;DHT22;1009;51.436;6.972;2023-05-16T11:27:20;14.90;99.90
2012;DHT22;1009;51.436;6.972;2023-05-16T11:29:47;14.90;99.90
2012;DHT22;1009;51.436;6.972;2023-05-16T11:32:18;14.70;99.90
2012;DHT22;1009;51.436;6.972;2023-05-16T11:34:46;14.30;99.90
2012;DHT22;1009;51.436;6.972;2023-05-16T11:37:13;14.10;99.90
2012;DHT22;1009;51.436;6.972;2023-05-16T11:39:40;13.70;99.90
2012;DHT22;1009;51.436;6.972;2023-05-16T11:42:07;13.30;99.90
2012;DHT22;1009;51.436;6.972;2023-05-16T11:44:34;12.80;99.90
2012;DHT22;1009;51.436;6.972;2023-05-16T11:47:01;12.40;99.90
2012;DHT22;1009;51.436;6.972;2023-05-16T11:49:28;12.20;99.90
2012;DHT22;1009;51.436;6.972;2023-05-16T11:51:56;12.00;99.90
2012;DHT22;1009;51.436;6.972;2023-05-16T11:54:23;12.10;99.90
2012;DHT22;1009;51.436;6.972;2023-05-16T11:56:50;12.00;99.90
2012;DHT22;1009;51.436;6.972;2023-05-16T11:59:18;12.10;99.90
2012;DHT22;1009;51.436;6.972;2023-05-16T12:01:45;12.60;99.90
2012;DHT22;1009;51.436;6.972;2023-05-16T12:04:15;12.80;99.90
2012;DHT22;1009;51.436;6.972;2023-05-16T12:06:42;13.40;99.90
2012;DHT22;1009;51.436;6.972;2023-05-16T12:09:13;13.80;99.90
2012;DHT22;1009;51.436;6.972;2023-05-16T12:11:41;14.50;99.90
2012;DHT22;1009;51.436;6.972;2023-05-16T12:14:09;14.90;99.90
2012;DHT22;1009;51.436;6.972;2023-05-16T12:16:38;15.00;99.90
2012;DHT22;1009;51.436;6.972;2023-05-16T12:19:07;15.20;99.90
2012;DHT22;1009;51.436;6.972;2023-05-16T12:21:34;15.40;98.40
2012;DHT22;1009;51.436;6.972;2023-05-16T12:24:01;15.70;96.80
2012;DHT22;1009;51.436;6.972;2023-05-16T12:26:30;16.00;99.10
2012;DHT22;1009;51.436;6.972;2023-05-16T12:28:58;15.80;98.40
2012;DHT22;1009;51.436;6.972;2023-05-16T12:31:27;16.30;96.60
2012;DHT22;1009;51.436;6.972;2023-05-16T12:33:55;16.30;96.80
2012;DHT22;1009;51.436;6.972;2023-05-16T12:36:22;16.40;97.50
2012;DHT22;1009;51.436;6.972;2023-05-16T12:38:49;16.60;94.00
2012;DHT22;1009;51.436;6.972;2023-05-16T12:41:17;16.40;94.80
2012;DHT22;1009;51.436;6.972;2023-05-16T12:43:45;15.70;92.20
2012;DHT22;1009;51.436;6.972;2023-05-16T12:46:12;15.20;93.50
2012;DHT22;1009;51.436;6.972;2023-05-16T12:48:40;14.80;93.80
2012;DHT22;1009;51.436;6.972;2023-05-16T12:51:10;14.50;99.90
2012;DHT22;1009;51.436;6.972;2023-05-16T12:53:41;14.30;99.40
2012;DHT22;1009;51.436;6.972;2023-05-16T12:56:08;14.60;99.90
2012;DHT22;1009;51.436;6.972;2023-05-16T12:58:36;14.80;99.90
2012;DHT22;1009;51.436;6.972;2023-05-16T13:01:04;15.10;99.80
2012;DHT22;1009;51.436;6.972;2023-05-16T13:03:33;15.60;99.90
2012;DHT22;1009;51.436;6.972;2023-05-16T13:06:00;15.80;99.00
2012;DHT22;1009;51.436;6.972;2023-05-16T13:08:28;16.00;96.40
2012;DHT22;1009;51.436;6.972;2023-05-16T13:10:55;16.00;94.20
2012;DHT22;1009;51.436;6.972;2023-05-16T13:13:22;15.60;97.60
2012;DHT22;1009;51.436;6.972;2023-05-16T13:15:48;15.20;92.70
2012;DHT22;1009;51.436;6.972;2023-05-16T13:18:20;14.80;89.40
2012;DHT22;1009;51.436;6.972;2023-05-16T13:20:49;14.60;91.90
2012;DHT22;1009;51.436;6.972;2023-05-16T13:23:17;14.60;94.70
2012;DHT22;1009;51.436;6.972;2023-05-16T13:25:44;14.80;96.90
2012;DHT22;1009;51.436;6.972;2023-05-16T13:28:11;14.90;92.10
2012;DHT22;1009;51.436;6.972;2023-05-16T13:30:38;15.30;90.90
2012;DHT22;1009;51.436;6.972;2023-05-16T13:33:04;15.60;97.60
2012;DHT22;1009;51.436;6.972;2023-05-16T13:35:32;15.40;92.90
2012;DHT22;1009;51.436;6.972;2023-05-16T13:37:59;15.10;91.40
2012;DHT22;1009;51.436;6.972;2023-05-16T13:40:26;15.40;93.40
2012;DHT22;1009;51.436;6.972;2023-05-16T13:42:53;15.80;94.60
2012;DHT22;1009;51.436;6.972;2023-05-16T13:45:21;15.90;92.60
2012;DHT22;1009;51.436;6.972;2023-05-16T13:47:47;15.40;88.20
2012;DHT22;1009;51.436;6.972;2023-05-16T13:50:14;15.00;90.60
2012;DHT22;1009;51.436;6.972;2023-05-16T13:52:42;14.60;91.70
2012;DHT22;1009;51.436;6.972;2023-05-16T13:55:09;14.40;92.70
2012;DHT22;1009;51.436;6.972;2023-05-16T13:57:36;14.40;94.20
2012;DHT22;1009;51.436;6.972;2023-05-16T14:00:04;14.30;94.50
2012;DHT22;1009;51.436;6.972;2023-05-16T14:02:37;14.40;94.10
2012;DHT22;1009;51.436;6.972;2023-05-16T14:05:04;14.50;99.90
2012;DHT22;1009;51.436;6.972;2023-05-16T14:07:31;14.40;99.90
2012;DHT22;1009;51.436;6.972;2023-05-16T14:09:59;14.30;99.90
2012;DHT22;1009;51.436;6.972;2023-05-16T14:12:29;14.30;99.90
2012;DHT22;1009;51.436;6.972;2023-05-16T14:14:56;14.30;98.10
2012;DHT22;1009;51.436;6.972;2023-05-16T14:17:23;14.30;99.90
2012;DHT22;1009;51.436;6.972;2023-05-16T14:19:53;14.40;99.90
2012;DHT22;1009;51.436;6.972;2023-05-16T14:22:19;14.70;99.60
2012;DHT22;1009;51.436;6.972;2023-05-16T14:24:46;15.10;99.40
2012;DHT22;1009;51.436;6.972;2023-05-16T14:27:15;14.90;97.60
2012;DHT22;1009;51.436;6.972;2023-05-16T14:29:41;14.80;99.90
2012;DHT22;1009;51.436;6.972;2023-05-16T14:32:09;14.60;99.90
2012;DHT22;1009;51.436;6.972;2023-05-16T14:34:37;14.40;99.90
2012;DHT22;1009;51.436;6.972;2023-05-16T14:37:04;14.30;99.90
2012;DHT22;1009;51.436;6.972;2023-05-16T14:39:30;14.20;99.90
2012;DHT22;1009;51.436;6.972;2023-05-16T14:41:57;14.20;99.90
2012;DHT22;1009;51.436;6.972;2023-05-16T14:44:25;14.10;99.90
2012;DHT22;1009;51.436;6.972;2023-05-16T14:46:52;14.10;99.90
2012;DHT22;1009;51.436;6.972;2023-05-16T14:49:19;14.00;99.90
2012;DHT22;1009;51.436;6.972;2023-05-16T14:51:46;14.00;99.90
2012;DHT22;1009;51.436;6.972;2023-05-16T14:54:15;13.90;99.90
2012;DHT22;1009;51.436;6.972;2023-05-16T14:56:45;13.80;99.90
2012;DHT22;1009;51.436;6.972;2023-05-16T14:59:12;13.70;99.90
2012;DHT22;1009;51.436;6.972;2023-05-16T15:01:43;13.60;99.90
2012;DHT22;1009;51.436;6.972;2023-05-16T15:04:10;13.60;99.90
2012;DHT22;1009;51.436;6.972;2023-05-16T15:06:37;13.50;99.90
2012;DHT22;1009;51.436;6.972;2023-05-16T15:09:03;13.40;99.90
2012;DHT22;1009;51.436;6.972;2023-05-16T15:11:30;13.40;99.90
2012;DHT22;1009;51.436;6.972;2023-05-16T15:13:57;13.40;99.90
2012;DHT22;1009;51.436;6.972;2023-05-16T15:16:24;13.40;99.90
2012;DHT22;1009;51.436;6.972;2023-05-16T15:18:56;13.40;99.90
2012;DHT22;1009;51.436;6.972;2023-05-16T15:21:23;13.40;99.90
2012;DHT22;1009;51.436;6.972;2023-05-16T15:23:49;13.40;99.90
2012;DHT22;1009;51.436;6.972;2023-05-16T15:26:16;13.30;99.90
2012;DHT22;1009;51.436;6.972;2023-05-16T15:28:43;13.30;99.90
2012;DHT22;1009;51.436;6.972;2023-05-16T15:31:18;13.10;99.90
2012;DHT22;1009;51.436;6.972;2023-05-16T15:33:45;13.10;99.90
2012;DHT22;1009;51.436;6.972;2023-05-16T15:36:13;13.00;99.90
2012;DHT22;1009;51.436;6.972;2023-05-16T15:38:40;13.00;99.90
2012;DHT22;1009;51.436;6.972;2023-05-16T15:41:10;12.90;99.90
2012;DHT22;1009;51.436;6.972;2023-05-16T15:43:36;12.90;99.90
2012;DHT22;1009;51.436;6.972;2023-05-16T15:46:05;12.90;99.90
2012;DHT22;1009;51.436;6.972;2023-05-16T15:48:32;13.00;99.90
2012;DHT22;1009;51.436;6.972;2023-05-16T15:50:58;13.00;99.90
2012;DHT22;1009;51.436;6.972;2023-05-16T15:53:26;13.10;99.90
2012;DHT22;1009;51.436;6.972;2023-05-16T15:55:53;13.20;99.90
2012;DHT22;1009;51.436;6.972;2023-05-16T15:58:20;13.20;99.90
2012;DHT22;1009;51.436;6.972;2023-05-16T16:00:47;13.30;99.90
2012;DHT22;1009;51.436;6.972;2023-05-16T16:03:14;13.20;99.90
2012;DHT22;1009;51.436;6.972;2023-05-16T16:05:41;13.20;99.90
2012;DHT22;1009;51.436;6.972;2023-05-16T16:08:07;13.20;99.90
2012;DHT22;1009;51.436;6.972;2023-05-16T16:10:35;13.10;99.90
2012;DHT22;1009;51.436;6.972;2023-05-16T16:13:03;13.10;99.90